createdAt,value
2022-08-14T00:00:26.025Z,20.60
2022-08-14T00:01:13.391Z,20.60
2022-08-14T00:01:54.821Z,20.60
2022-08-14T00:02:31.592Z,20.60
2022-08-14T00:03:05.376Z,20.59
2022-08-14T00:03:40.716Z,20.59
2022-08-14T00:04:34.471Z,20.59
2022-08-14T00:05:11.046Z,20.58
2022-08-14T00:05:44.903Z,20.58
2022-08-14T00:06:28.423Z,20.59
2022-08-14T00:07:06.099Z,20.59
2022-08-14T00:07:41.900Z,20.60
2022-08-14T00:08:15.697Z,20.59
2022-08-14T00:09:09.057Z,20.56
2022-08-14T00:10:01.589Z,20.55
2022-08-14T00:10:52.318Z,20.54
2022-08-14T00:11:31.340Z,20.53
2022-08-14T00:12:07.304Z,20.51
2022-08-14T00:12:57.480Z,20.52
2022-08-14T00:13:31.270Z,20.50
2022-08-14T00:14:04.924Z,20.51
2022-08-14T00:14:39.518Z,20.51
2022-08-14T00:15:25.300Z,20.51
2022-08-14T00:16:04.108Z,20.50
2022-08-14T00:16:45.182Z,20.50
2022-08-14T00:17:18.612Z,20.49
2022-08-14T00:17:55.425Z,20.48
2022-08-14T00:18:30.875Z,20.48
2022-08-14T00:19:24.339Z,20.45
2022-08-14T00:20:01.145Z,20.43
2022-08-14T00:20:42.891Z,20.41
2022-08-14T00:21:16.722Z,20.40
2022-08-14T00:21:52.037Z,20.38
2022-08-14T00:22:56.507Z,20.37
2022-08-14T00:23:20.272Z,20.37
2022-08-14T00:23:54.788Z,20.36
2022-08-14T00:24:35.105Z,20.37
2022-08-14T00:25:10.057Z,20.37
2022-08-14T00:25:59.075Z,20.37
2022-08-14T00:26:39.635Z,20.38
2022-08-14T00:27:13.119Z,20.37
2022-08-14T00:27:54.200Z,20.37
2022-08-14T00:28:29.138Z,20.38
2022-08-14T00:29:08.350Z,20.39
2022-08-14T00:29:43.083Z,20.40
2022-08-14T00:30:17.358Z,20.41
2022-08-14T00:30:51.059Z,20.42
2022-08-14T00:31:35.210Z,20.43
2022-08-14T00:32:52.208Z,20.45
2022-08-14T00:33:15.984Z,20.44
2022-08-14T00:33:51.779Z,20.44
2022-08-14T00:34:35.520Z,20.44
2022-08-14T00:35:12.779Z,20.45
2022-08-14T00:36:39.226Z,20.45
2022-08-14T00:36:49.328Z,20.47
2022-08-14T00:37:23.245Z,20.47
2022-08-14T00:37:56.538Z,20.47
2022-08-14T00:38:29.903Z,20.49
2022-08-14T00:39:06.530Z,20.50
2022-08-14T00:39:42.979Z,20.51
2022-08-14T00:40:33.220Z,20.51
2022-08-14T00:41:10.978Z,20.52
2022-08-14T00:41:44.680Z,20.53
2022-08-14T00:42:21.500Z,20.53
2022-08-14T00:43:14.943Z,20.55
2022-08-14T00:43:48.382Z,20.55
2022-08-14T00:44:31.745Z,20.55
2022-08-14T00:45:09.133Z,20.56
2022-08-14T00:45:51.593Z,20.58
2022-08-14T00:46:32.386Z,20.58
2022-08-14T00:47:10.762Z,20.58
2022-08-14T00:47:47.547Z,20.58
2022-08-14T00:48:34.306Z,20.59
2022-08-14T00:49:11.533Z,20.59
2022-08-14T00:49:48.640Z,20.58
2022-08-14T00:50:23.353Z,20.58
2022-08-14T00:51:00.006Z,20.59
2022-08-14T00:51:37.973Z,20.59
2022-08-14T00:52:17.861Z,20.58
2022-08-14T00:52:53.029Z,20.57
2022-08-14T00:53:27.202Z,20.56
2022-08-14T00:54:02.803Z,20.56
2022-08-14T00:54:39.350Z,20.57
2022-08-14T00:55:14.816Z,20.58
2022-08-14T00:55:49.558Z,20.59
2022-08-14T00:56:22.997Z,20.59
2022-08-14T00:57:05.661Z,20.59
2022-08-14T00:57:40.560Z,20.59
2022-08-14T00:58:32.815Z,20.59
2022-08-14T00:59:06.848Z,20.59
2022-08-14T00:59:41.987Z,20.59
2022-08-14T01:00:34.233Z,20.59
2022-08-14T01:01:11.864Z,20.60
2022-08-14T01:01:46.190Z,20.60
2022-08-14T01:02:25.000Z,20.60
2022-08-14T01:03:02.049Z,20.60
2022-08-14T01:03:38.337Z,20.60
2022-08-14T01:04:37.248Z,20.61
2022-08-14T01:05:08.241Z,20.61
2022-08-14T01:05:51.905Z,20.60
2022-08-14T01:06:30.343Z,20.60
2022-08-14T01:07:08.268Z,20.59
2022-08-14T01:07:53.920Z,20.59
2022-08-14T01:08:57.966Z,20.59
2022-08-14T01:09:25.471Z,20.59
2022-08-14T01:10:02.846Z,20.58
2022-08-14T01:10:52.229Z,20.58
2022-08-14T01:11:35.614Z,20.57
2022-08-14T01:12:11.345Z,20.56
2022-08-14T01:12:45.711Z,20.54
2022-08-14T01:13:28.542Z,20.54
2022-08-14T01:14:27.432Z,20.53
2022-08-14T01:15:03.315Z,20.51
2022-08-14T01:15:57.552Z,20.51
2022-08-14T01:16:31.701Z,20.52
2022-08-14T01:17:05.227Z,20.51
2022-08-14T01:18:01.067Z,20.53
2022-08-14T01:18:57.790Z,20.53
2022-08-14T01:19:53.975Z,20.50
2022-08-14T01:20:46.803Z,20.48
2022-08-14T01:21:47.180Z,20.45
2022-08-14T01:22:27.081Z,20.43
2022-08-14T01:23:03.049Z,20.43
2022-08-14T01:23:47.046Z,20.44
2022-08-14T01:24:28.940Z,20.45
2022-08-14T01:25:09.005Z,20.46
2022-08-14T01:25:44.650Z,20.47
2022-08-14T01:26:34.809Z,20.49
2022-08-14T01:27:18.237Z,20.48
2022-08-14T01:27:57.200Z,20.46
2022-08-14T01:28:56.072Z,20.44
2022-08-14T01:29:58.799Z,20.44
2022-08-14T01:30:38.232Z,20.44
2022-08-14T01:31:16.326Z,20.45
2022-08-14T01:31:55.294Z,20.45
2022-08-14T01:32:30.096Z,20.45
2022-08-14T01:33:03.758Z,20.45
2022-08-14T01:33:59.498Z,20.46
2022-08-14T01:35:17.956Z,20.48
2022-08-14T01:36:05.628Z,20.48
2022-08-14T01:36:23.211Z,20.48
2022-08-14T01:36:56.560Z,20.48
2022-08-14T01:37:29.819Z,20.49
2022-08-14T01:38:05.970Z,20.51
2022-08-14T01:38:44.172Z,20.52
2022-08-14T01:39:22.748Z,20.54
2022-08-14T01:39:57.577Z,20.55
2022-08-14T01:40:33.037Z,20.57
2022-08-14T01:41:15.894Z,20.58
2022-08-14T01:41:58.263Z,20.58
2022-08-14T01:42:36.309Z,20.59
2022-08-14T01:43:18.346Z,20.59
2022-08-14T01:44:02.447Z,20.59
2022-08-14T01:44:36.751Z,20.59
2022-08-14T01:45:17.788Z,20.59
2022-08-14T01:46:06.549Z,20.58
2022-08-14T01:46:44.647Z,20.58
2022-08-14T01:47:22.468Z,20.57
2022-08-14T01:48:03.538Z,20.57
2022-08-14T01:48:39.254Z,20.58
2022-08-14T01:49:15.619Z,20.57
2022-08-14T01:50:01.263Z,20.58
2022-08-14T01:50:35.315Z,20.58
2022-08-14T01:51:19.121Z,20.57
2022-08-14T01:51:57.042Z,20.59
2022-08-14T01:52:58.839Z,20.59
2022-08-14T01:53:31.556Z,20.59
2022-08-14T01:54:14.421Z,20.59
2022-08-14T01:54:58.074Z,20.59
2022-08-14T01:55:32.576Z,20.59
2022-08-14T01:56:12.127Z,20.59
2022-08-14T01:56:56.860Z,20.59
2022-08-14T01:57:49.656Z,20.60
2022-08-14T01:58:28.796Z,20.60
2022-08-14T01:59:09.749Z,20.59
2022-08-14T01:59:44.982Z,20.58
2022-08-14T02:00:19.028Z,20.59
2022-08-14T02:00:55.854Z,20.59
2022-08-14T02:01:30.551Z,20.58
2022-08-14T02:02:19.815Z,20.59
2022-08-14T02:02:57.332Z,20.57
2022-08-14T02:03:32.463Z,20.57
2022-08-14T02:04:20.747Z,20.58
2022-08-14T02:05:03.045Z,20.58
2022-08-14T02:05:38.109Z,20.59
2022-08-14T02:06:33.208Z,20.59
2022-08-14T02:07:15.842Z,20.59
2022-08-14T02:07:55.831Z,20.55
2022-08-14T02:08:34.681Z,20.54
2022-08-14T02:09:22.258Z,20.53
2022-08-14T02:09:56.223Z,20.53
2022-08-14T02:10:29.344Z,20.54
2022-08-14T02:11:20.253Z,20.54
2022-08-14T02:11:54.630Z,20.55
2022-08-14T02:12:30.805Z,20.54
2022-08-14T02:13:08.696Z,20.55
2022-08-14T02:13:46.844Z,20.55
2022-08-14T02:14:31.572Z,20.56
2022-08-14T02:15:09.730Z,20.55
2022-08-14T02:15:43.512Z,20.55
2022-08-14T02:16:22.523Z,20.55
2022-08-14T02:16:57.557Z,20.55
2022-08-14T02:17:34.076Z,20.55
2022-08-14T02:18:08.499Z,20.55
2022-08-14T02:18:42.453Z,20.56
2022-08-14T02:19:21.250Z,20.56
2022-08-14T02:19:56.109Z,20.56
2022-08-14T02:20:36.031Z,20.57
2022-08-14T02:21:09.772Z,20.57
2022-08-14T02:21:47.187Z,20.58
2022-08-14T02:22:32.583Z,20.57
2022-08-14T02:23:08.220Z,20.58
2022-08-14T02:23:42.621Z,20.57
2022-08-14T02:24:38.950Z,20.56
2022-08-14T02:25:11.443Z,20.56
2022-08-14T02:25:44.577Z,20.55
2022-08-14T02:26:31.052Z,20.56
2022-08-14T02:28:23.308Z,20.55
2022-08-14T02:28:26.019Z,20.55
2022-08-14T02:28:59.478Z,20.53
2022-08-14T02:29:56.265Z,20.53
2022-08-14T02:30:31.457Z,20.52
2022-08-14T02:31:08.959Z,20.51
2022-08-14T02:31:45.601Z,20.51
2022-08-14T02:32:29.966Z,20.50
2022-08-14T02:33:07.808Z,20.49
2022-08-14T02:33:44.930Z,20.49
2022-08-14T02:34:26.372Z,20.48
2022-08-14T02:35:00.941Z,20.48
2022-08-14T02:35:40.585Z,20.47
2022-08-14T02:37:05.228Z,20.47
2022-08-14T02:37:12.645Z,20.46
2022-08-14T02:37:50.323Z,20.45
2022-08-14T02:38:29.636Z,20.44
2022-08-14T02:39:08.036Z,20.44
2022-08-14T02:39:46.864Z,20.44
2022-08-14T02:40:32.461Z,20.44
2022-08-14T02:41:13.771Z,20.41
2022-08-14T02:41:52.806Z,20.41
2022-08-14T02:42:37.444Z,20.40
2022-08-14T02:43:11.597Z,20.40
2022-08-14T02:43:48.506Z,20.40
2022-08-14T02:44:29.741Z,20.40
2022-08-14T02:45:03.569Z,20.41
2022-08-14T02:45:44.682Z,20.41
2022-08-14T02:46:20.689Z,20.42
2022-08-14T02:47:01.800Z,20.42
2022-08-14T02:47:38.858Z,20.42
2022-08-14T02:49:03.283Z,20.42
2022-08-14T02:49:14.461Z,20.42
2022-08-14T02:49:55.011Z,20.41
2022-08-14T02:50:33.543Z,20.40
2022-08-14T02:51:12.965Z,20.39
2022-08-14T02:51:50.712Z,20.39
2022-08-14T02:52:57.386Z,20.38
2022-08-14T02:53:21.257Z,20.38
2022-08-14T02:53:54.769Z,20.38
2022-08-14T02:54:28.244Z,20.39
2022-08-14T02:55:04.863Z,20.41
2022-08-14T02:55:40.966Z,20.42
2022-08-14T02:56:30.257Z,20.42
2022-08-14T02:57:16.013Z,20.42
2022-08-14T02:57:58.050Z,20.42
2022-08-14T02:58:41.761Z,20.43
2022-08-14T02:59:19.343Z,20.43
2022-08-14T02:59:56.243Z,20.44
2022-08-14T03:00:31.139Z,20.45
2022-08-14T03:01:09.377Z,20.46
2022-08-14T03:01:43.538Z,20.47
2022-08-14T03:02:33.510Z,20.49
2022-08-14T03:03:18.350Z,20.49
2022-08-14T03:03:52.213Z,20.48
2022-08-14T03:04:29.053Z,20.48
2022-08-14T03:05:02.277Z,20.49
2022-08-14T03:05:37.047Z,20.49
2022-08-14T03:06:20.378Z,20.50
2022-08-14T03:06:57.963Z,20.51
2022-08-14T03:07:41.290Z,20.52
2022-08-14T03:08:16.143Z,20.53
2022-08-14T03:08:55.354Z,20.54
2022-08-14T03:10:24.810Z,20.54
2022-08-14T03:10:32.156Z,20.54
2022-08-14T03:11:11.679Z,20.54
2022-08-14T03:11:45.343Z,20.54
2022-08-14T03:12:31.204Z,20.53
2022-08-14T03:13:06.427Z,20.53
2022-08-14T03:13:53.811Z,20.53
2022-08-14T03:14:27.781Z,20.52
2022-08-14T03:15:16.114Z,20.51
2022-08-14T03:15:55.572Z,20.50
2022-08-14T03:16:38.527Z,20.50
2022-08-14T03:17:15.492Z,20.50
2022-08-14T03:17:56.881Z,20.50
2022-08-14T03:18:32.803Z,20.51
2022-08-14T03:19:09.002Z,20.51
2022-08-14T03:19:45.202Z,20.51
2022-08-14T03:20:18.384Z,20.52
2022-08-14T03:20:55.528Z,20.54
2022-08-14T03:21:34.403Z,20.55
2022-08-14T03:22:09.374Z,20.56
2022-08-14T03:22:53.440Z,20.56
2022-08-14T03:23:27.301Z,20.55
2022-08-14T03:24:21.566Z,20.55
2022-08-14T03:24:56.862Z,20.53
2022-08-14T03:25:37.730Z,20.53
2022-08-14T03:26:18.358Z,20.54
2022-08-14T03:27:04.442Z,20.53
2022-08-14T03:27:48.390Z,20.52
2022-08-14T03:28:33.260Z,20.53
2022-08-14T03:29:13.891Z,20.52
2022-08-14T03:29:49.204Z,20.53
2022-08-14T03:30:23.867Z,20.54
2022-08-14T03:31:00.483Z,20.54
2022-08-14T03:31:40.643Z,20.54
2022-08-14T03:32:16.915Z,20.55
2022-08-14T03:32:50.437Z,20.55
2022-08-14T03:33:25.157Z,20.55
2022-08-14T03:34:01.401Z,20.54
2022-08-14T03:34:52.783Z,20.53
2022-08-14T03:35:37.346Z,20.53
2022-08-14T03:37:37.551Z,20.53
2022-08-14T03:37:37.978Z,20.53
2022-08-14T03:39:14.170Z,20.52
2022-08-14T03:39:15.184Z,20.53
2022-08-14T03:39:55.886Z,20.52
2022-08-14T03:40:29.009Z,20.52
2022-08-14T03:41:02.879Z,20.54
2022-08-14T03:41:37.867Z,20.55
2022-08-14T03:42:19.394Z,20.56
2022-08-14T03:42:52.814Z,20.57
2022-08-14T03:43:28.539Z,20.57
2022-08-14T03:45:25.809Z,20.58
2022-08-14T03:45:26.005Z,20.58
2022-08-14T03:45:55.618Z,20.58
2022-08-14T03:46:51.807Z,20.58
2022-08-14T03:47:46.559Z,20.58
2022-08-14T03:48:30.426Z,20.57
2022-08-14T03:49:06.732Z,20.56
2022-08-14T03:49:49.784Z,20.56
2022-08-14T03:50:30.889Z,20.55
2022-08-14T03:51:09.581Z,20.54
2022-08-14T03:51:46.358Z,20.53
2022-08-14T03:52:38.453Z,20.53
2022-08-14T03:53:15.502Z,20.53
2022-08-14T03:53:49.796Z,20.54
2022-08-14T03:54:24.670Z,20.54
2022-08-14T03:54:58.862Z,20.55
2022-08-14T03:55:32.038Z,20.55
2022-08-14T03:56:06.476Z,20.56
2022-08-14T03:56:45.636Z,20.56
2022-08-14T03:57:24.604Z,20.56
2022-08-14T03:58:00.440Z,20.55
2022-08-14T03:58:36.396Z,20.56
2022-08-14T03:59:17.643Z,20.56
2022-08-14T03:59:51.900Z,20.57
2022-08-14T04:00:43.967Z,20.58
2022-08-14T04:01:25.387Z,20.58
2022-08-14T04:02:04.542Z,20.59
2022-08-14T04:02:46.694Z,20.59
2022-08-14T04:03:24.033Z,20.58
2022-08-14T04:04:00.396Z,20.59
2022-08-14T04:04:33.809Z,20.60
2022-08-14T04:05:12.085Z,20.60
2022-08-14T04:05:48.999Z,20.61
2022-08-14T04:06:22.506Z,20.61
2022-08-14T04:07:01.705Z,20.61
2022-08-14T04:07:36.098Z,20.62
2022-08-14T04:08:22.698Z,20.63
2022-08-14T04:09:07.313Z,20.65
2022-08-14T04:09:42.273Z,20.65
2022-08-14T04:10:17.138Z,20.66
2022-08-14T04:10:50.738Z,20.67
2022-08-14T04:11:25.928Z,20.68
2022-08-14T04:12:00.218Z,20.68
2022-08-14T04:12:36.423Z,20.69
2022-08-14T04:13:09.536Z,20.70
2022-08-14T04:13:44.984Z,20.72
2022-08-14T04:14:18.065Z,20.72
2022-08-14T04:14:53.122Z,20.74
2022-08-14T04:15:28.514Z,20.73
2022-08-14T04:16:05.068Z,20.76
2022-08-14T04:16:43.496Z,20.77
2022-08-14T04:17:17.620Z,20.79
2022-08-14T04:17:51.650Z,20.80
2022-08-14T04:18:30.583Z,20.82
2022-08-14T04:19:05.217Z,20.83
2022-08-14T04:19:40.840Z,20.85
2022-08-14T04:20:14.654Z,20.86
2022-08-14T04:20:59.595Z,20.87
2022-08-14T04:21:39.836Z,20.88
2022-08-14T04:22:25.969Z,20.88
2022-08-14T04:22:59.182Z,20.87
2022-08-14T04:23:35.880Z,20.88
2022-08-14T04:24:09.049Z,20.89
2022-08-14T04:24:45.117Z,20.90
2022-08-14T04:25:25.089Z,20.91
2022-08-14T04:25:59.329Z,20.92
2022-08-14T04:26:42.484Z,20.92
2022-08-14T04:27:17.181Z,20.93
2022-08-14T04:28:02.242Z,20.93
2022-08-14T04:29:07.227Z,20.94
2022-08-14T04:29:32.909Z,20.94
2022-08-14T04:30:07.403Z,20.94
2022-08-14T04:30:42.266Z,20.94
2022-08-14T04:31:17.783Z,20.95
2022-08-14T04:32:58.417Z,20.96
2022-08-14T04:33:00.795Z,20.95
2022-08-14T04:33:37.676Z,20.96
2022-08-14T04:34:16.928Z,20.96
2022-08-14T04:34:55.278Z,20.97
2022-08-14T04:35:56.607Z,20.97
2022-08-14T04:36:21.855Z,20.97
2022-08-14T04:37:22.239Z,20.97
2022-08-14T04:38:36.836Z,20.97
2022-08-14T04:39:28.742Z,20.96
2022-08-14T04:40:20.421Z,20.95
2022-08-14T04:41:14.153Z,20.93
2022-08-14T04:42:09.263Z,20.93
2022-08-14T04:43:04.367Z,20.93
2022-08-14T04:43:41.218Z,20.92
2022-08-14T04:44:35.827Z,20.92
2022-08-14T04:45:08.664Z,20.93
2022-08-14T04:45:42.675Z,20.93
2022-08-14T04:46:56.914Z,20.94
2022-08-14T04:47:31.633Z,20.94
2022-08-14T04:48:39.173Z,20.93
2022-08-14T04:49:08.288Z,20.92
2022-08-14T04:49:56.735Z,20.92
2022-08-14T04:50:33.872Z,20.93
2022-08-14T04:51:20.812Z,20.94
2022-08-14T04:51:55.831Z,20.95
2022-08-14T04:52:30.048Z,20.96
2022-08-14T04:53:04.348Z,20.98
2022-08-14T04:53:43.643Z,20.99
2022-08-14T04:54:17.453Z,21.00
2022-08-14T04:54:50.602Z,21.00
2022-08-14T04:55:23.968Z,21.01
2022-08-14T04:56:01.203Z,21.02
2022-08-14T04:56:34.890Z,21.01
2022-08-14T04:57:08.337Z,21.00
2022-08-14T04:57:44.559Z,21.00
2022-08-14T04:58:32.911Z,21.00
2022-08-14T04:59:09.606Z,20.99
2022-08-14T04:59:44.015Z,20.98
2022-08-14T05:00:18.196Z,20.98
2022-08-14T05:00:52.577Z,20.97
2022-08-14T05:01:27.126Z,20.97
2022-08-14T05:02:00.540Z,20.96
2022-08-14T05:02:36.551Z,20.96
2022-08-14T05:03:10.557Z,20.96
2022-08-14T05:03:44.360Z,20.97
2022-08-14T05:04:19.954Z,20.96
2022-08-14T05:04:57.096Z,20.96
2022-08-14T05:05:33.414Z,20.97
2022-08-14T05:06:37.587Z,20.97
2022-08-14T05:07:02.440Z,20.95
2022-08-14T05:07:54.719Z,20.95
2022-08-14T05:08:32.445Z,20.96
2022-08-14T05:09:24.739Z,20.95
2022-08-14T05:10:12.871Z,20.93
2022-08-14T05:10:55.231Z,20.92
2022-08-14T05:11:28.468Z,20.90
2022-08-14T05:13:11.057Z,20.86
2022-08-14T05:13:11.866Z,20.88
2022-08-14T05:14:53.402Z,20.82
2022-08-14T05:15:32.089Z,20.80
2022-08-14T05:16:08.123Z,20.78
2022-08-14T05:16:42.408Z,20.78
2022-08-14T05:17:16.075Z,20.78
2022-08-14T05:17:58.619Z,20.79
2022-08-14T05:19:17.762Z,20.79
2022-08-14T05:19:44.787Z,20.78
2022-08-14T05:21:57.918Z,20.76
2022-08-14T05:21:58.350Z,20.74
2022-08-14T05:22:23.095Z,20.73
2022-08-14T05:23:01.397Z,20.72
2022-08-14T05:23:38.188Z,20.71
2022-08-14T05:24:17.722Z,20.71
2022-08-14T05:24:52.265Z,20.70
2022-08-14T05:25:25.415Z,20.70
2022-08-14T05:26:13.357Z,20.71
2022-08-14T05:26:47.247Z,20.71
2022-08-14T05:27:22.634Z,20.70
2022-08-14T05:28:00.803Z,20.71
2022-08-14T05:28:36.156Z,20.71
2022-08-14T05:29:11.663Z,20.70
2022-08-14T05:29:46.678Z,20.68
2022-08-14T05:30:20.559Z,20.67
2022-08-14T05:30:56.822Z,20.65
2022-08-14T05:31:39.614Z,20.65
2022-08-14T05:32:15.133Z,20.63
2022-08-14T05:32:48.871Z,20.63
2022-08-14T05:33:25.578Z,20.63
2022-08-14T05:33:59.061Z,20.63
2022-08-14T05:34:32.289Z,20.62
2022-08-14T05:35:07.228Z,20.62
2022-08-14T05:35:42.443Z,20.62
2022-08-14T05:36:17.150Z,20.62
2022-08-14T05:36:58.844Z,20.62
2022-08-14T05:37:36.058Z,20.61
2022-08-14T05:38:31.365Z,20.61
2022-08-14T05:39:05.787Z,20.60
2022-08-14T05:39:43.803Z,20.60
2022-08-14T05:40:17.497Z,20.60
2022-08-14T05:40:53.218Z,20.59
2022-08-14T05:41:52.816Z,20.58
2022-08-14T05:42:29.240Z,20.57
2022-08-14T05:43:06.823Z,20.55
2022-08-14T05:43:42.121Z,20.54
2022-08-14T05:44:17.548Z,20.54
2022-08-14T05:44:51.241Z,20.53
2022-08-14T05:45:30.173Z,20.52
2022-08-14T05:46:05.830Z,20.51
2022-08-14T05:46:39.305Z,20.52
2022-08-14T05:47:12.500Z,20.52
2022-08-14T05:47:50.820Z,20.53
2022-08-14T05:48:33.842Z,20.52
2022-08-14T05:49:17.065Z,20.52
2022-08-14T05:49:51.433Z,20.51
2022-08-14T05:50:25.202Z,20.52
2022-08-14T05:51:02.666Z,20.51
2022-08-14T05:51:36.013Z,20.52
2022-08-14T05:52:09.809Z,20.52
2022-08-14T05:52:43.480Z,20.53
2022-08-14T05:53:19.416Z,20.54
2022-08-14T05:54:01.759Z,20.56
2022-08-14T05:54:47.454Z,20.56
2022-08-14T05:55:23.088Z,20.56
2022-08-14T05:56:00.203Z,20.56
2022-08-14T05:56:33.438Z,20.56
2022-08-14T05:57:10.397Z,20.57
2022-08-14T05:58:00.592Z,20.58
2022-08-14T05:58:41.402Z,20.59
2022-08-14T05:59:16.776Z,20.57
2022-08-14T05:59:50.524Z,20.55
2022-08-14T06:00:36.954Z,20.57
2022-08-14T06:01:13.048Z,20.58
2022-08-14T06:01:50.489Z,20.56
2022-08-14T06:02:24.676Z,20.57
2022-08-14T06:03:04.067Z,20.58
2022-08-14T06:03:40.431Z,20.59
2022-08-14T06:04:13.869Z,20.59
2022-08-14T06:04:50.181Z,20.61
2022-08-14T06:05:23.765Z,20.62
2022-08-14T06:06:03.946Z,20.64
2022-08-14T06:06:38.352Z,20.63
2022-08-14T06:07:11.872Z,20.64
2022-08-14T06:07:45.258Z,20.64
2022-08-14T06:08:41.137Z,20.65
2022-08-14T06:09:15.518Z,20.64
2022-08-14T06:09:52.210Z,20.62
2022-08-14T06:10:28.732Z,20.60
2022-08-14T06:11:06.227Z,20.60
2022-08-14T06:11:39.706Z,20.60
2022-08-14T06:12:13.010Z,20.61
2022-08-14T06:13:05.322Z,20.62
2022-08-14T06:13:45.598Z,20.62
2022-08-14T06:14:24.012Z,20.63
2022-08-14T06:14:57.842Z,20.63
2022-08-14T06:15:31.179Z,20.64
2022-08-14T06:16:07.588Z,20.64
2022-08-14T06:16:47.183Z,20.64
2022-08-14T06:17:25.907Z,20.63
2022-08-14T06:18:00.505Z,20.64
2022-08-14T06:18:36.354Z,20.65
2022-08-14T06:19:11.463Z,20.65
2022-08-14T06:19:53.566Z,20.65
2022-08-14T06:20:31.433Z,20.65
2022-08-14T06:21:12.857Z,20.65
2022-08-14T06:21:47.178Z,20.65
2022-08-14T06:22:21.803Z,20.66
2022-08-14T06:22:55.438Z,20.67
2022-08-14T06:23:30.065Z,20.69
2022-08-14T06:24:03.400Z,20.71
2022-08-14T06:24:36.565Z,20.73
2022-08-14T06:25:17.194Z,20.76
2022-08-14T06:25:53.564Z,20.76
2022-08-14T06:26:30.258Z,20.77
2022-08-14T06:27:06.144Z,20.80
2022-08-14T06:27:44.237Z,20.81
2022-08-14T06:28:27.379Z,20.81
2022-08-14T06:29:01.769Z,20.82
2022-08-14T06:29:35.411Z,20.82
2022-08-14T06:30:12.678Z,20.83
2022-08-14T06:30:50.050Z,20.86
2022-08-14T06:31:23.110Z,20.87
2022-08-14T06:32:00.517Z,20.88
2022-08-14T06:32:52.323Z,20.89
2022-08-14T06:33:30.317Z,20.89
2022-08-14T06:35:11.246Z,20.92
2022-08-14T06:35:21.274Z,20.93
2022-08-14T06:35:54.411Z,20.92
2022-08-14T06:36:27.790Z,20.92
2022-08-14T06:37:01.087Z,20.91
2022-08-14T06:38:04.369Z,20.91
2022-08-14T06:38:38.007Z,20.89
2022-08-14T06:39:11.188Z,20.89
2022-08-14T06:39:44.571Z,20.90
2022-08-14T06:40:26.159Z,20.92
2022-08-14T06:41:02.781Z,20.94
2022-08-14T06:41:59.699Z,20.94
2022-08-14T06:42:33.719Z,20.95
2022-08-14T06:43:09.519Z,20.96
2022-08-14T06:43:45.281Z,20.98
2022-08-14T06:44:22.573Z,20.99
2022-08-14T06:45:08.118Z,21.00
2022-08-14T06:45:44.045Z,21.01
2022-08-14T06:46:34.033Z,21.02
2022-08-14T06:47:10.440Z,21.02
2022-08-14T06:47:47.945Z,21.02
2022-08-14T06:48:25.839Z,21.01
2022-08-14T06:48:59.015Z,21.01
2022-08-14T06:49:40.580Z,21.01
2022-08-14T06:50:27.811Z,21.04
2022-08-14T06:51:01.960Z,21.05
2022-08-14T06:51:38.501Z,21.06
2022-08-14T06:52:18.041Z,21.08
2022-08-14T06:52:53.140Z,21.09
2022-08-14T06:53:28.116Z,21.10
2022-08-14T06:54:02.568Z,21.12
2022-08-14T06:54:35.894Z,21.14
2022-08-14T06:55:11.502Z,21.16
2022-08-14T06:55:57.926Z,21.16
2022-08-14T06:56:34.901Z,21.17
2022-08-14T06:57:08.603Z,21.17
2022-08-14T06:57:46.982Z,21.18
2022-08-14T06:58:28.748Z,21.18
2022-08-14T06:59:02.785Z,21.19
2022-08-14T06:59:38.877Z,21.16
2022-08-14T07:00:26.668Z,21.13
2022-08-14T07:01:27.158Z,21.11
2022-08-14T07:02:20.255Z,21.10
2022-08-14T07:03:13.049Z,21.08
2022-08-14T07:04:07.195Z,21.06
2022-08-14T07:05:13.025Z,21.04
2022-08-14T07:05:55.694Z,21.01
2022-08-14T07:06:46.412Z,20.99
2022-08-14T07:07:21.136Z,20.99
2022-08-14T07:07:54.705Z,21.00
2022-08-14T07:08:31.908Z,21.01
2022-08-14T07:09:05.653Z,21.02
2022-08-14T07:09:43.719Z,21.03
2022-08-14T07:10:24.952Z,21.05
2022-08-14T07:11:04.364Z,21.06
2022-08-14T07:11:38.873Z,21.07
2022-08-14T07:12:52.296Z,21.07
2022-08-14T07:13:07.704Z,21.07
2022-08-14T07:13:41.453Z,21.06
2022-08-14T07:14:15.617Z,21.07
2022-08-14T07:14:49.532Z,21.07
2022-08-14T07:15:22.770Z,21.08
2022-08-14T07:15:58.537Z,21.08
2022-08-14T07:16:32.017Z,21.09
2022-08-14T07:17:06.415Z,21.09
2022-08-14T07:17:52.047Z,21.10
2022-08-14T07:18:31.552Z,21.11
2022-08-14T07:19:06.146Z,21.11
2022-08-14T07:19:39.393Z,21.11
2022-08-14T07:20:14.058Z,21.11
2022-08-14T07:20:53.692Z,21.12
2022-08-14T07:21:27.691Z,21.12
2022-08-14T07:22:05.578Z,21.11
2022-08-14T07:22:57.100Z,21.11
2022-08-14T07:23:31.317Z,21.10
2022-08-14T07:24:05.293Z,21.10
2022-08-14T07:24:43.330Z,21.11
2022-08-14T07:25:17.234Z,21.11
2022-08-14T07:25:54.301Z,21.13
2022-08-14T07:26:29.477Z,21.14
2022-08-14T07:27:03.126Z,21.14
2022-08-14T07:27:36.461Z,21.16
2022-08-14T07:28:23.969Z,21.18
2022-08-14T07:28:57.655Z,21.19
2022-08-14T07:29:31.325Z,21.20
2022-08-14T07:30:06.423Z,21.22
2022-08-14T07:30:51.386Z,21.23
2022-08-14T07:31:25.049Z,21.24
2022-08-14T07:31:58.915Z,21.24
2022-08-14T07:32:34.354Z,21.25
2022-08-14T07:33:09.691Z,21.26
2022-08-14T07:33:50.093Z,21.26
2022-08-14T07:34:36.460Z,21.27
2022-08-14T07:35:15.619Z,21.26
2022-08-14T07:35:58.373Z,21.24
2022-08-14T07:36:32.236Z,21.21
2022-08-14T07:37:06.205Z,21.19
2022-08-14T07:37:39.544Z,21.20
2022-08-14T07:38:20.735Z,21.20
2022-08-14T07:38:54.381Z,21.20
2022-08-14T07:39:28.033Z,21.20
2022-08-14T07:40:04.409Z,21.20
2022-08-14T07:40:37.815Z,21.21
2022-08-14T07:41:14.719Z,21.23
2022-08-14T07:41:49.948Z,21.23
2022-08-14T07:42:23.732Z,21.24
2022-08-14T07:42:57.478Z,21.25
2022-08-14T07:43:55.637Z,21.26
2022-08-14T07:44:35.948Z,21.27
2022-08-14T07:45:20.167Z,21.28
2022-08-14T07:45:55.796Z,21.29
2022-08-14T07:46:30.971Z,21.31
2022-08-14T07:47:05.306Z,21.34
2022-08-14T07:47:43.264Z,21.34
2022-08-14T07:48:17.917Z,21.35
2022-08-14T07:48:59.246Z,21.37
2022-08-14T07:49:35.022Z,21.38
2022-08-14T07:50:18.707Z,21.39
2022-08-14T07:51:02.064Z,21.41
2022-08-14T07:51:40.019Z,21.43
2022-08-14T07:52:13.611Z,21.44
2022-08-14T07:52:56.031Z,21.46
2022-08-14T07:53:29.682Z,21.47
2022-08-14T07:54:10.973Z,21.48
2022-08-14T07:54:45.725Z,21.48
2022-08-14T07:55:21.221Z,21.48
2022-08-14T07:56:00.339Z,21.49
2022-08-14T07:56:47.027Z,21.51
2022-08-14T07:57:25.067Z,21.51
2022-08-14T07:57:58.432Z,21.51
2022-08-14T07:58:38.606Z,21.52
2022-08-14T07:59:12.732Z,21.53
2022-08-14T07:59:47.098Z,21.53
2022-08-14T08:00:31.410Z,21.55
2022-08-14T08:01:07.342Z,21.55
2022-08-14T08:01:47.943Z,21.55
2022-08-14T08:02:28.298Z,21.56
2022-08-14T08:03:11.086Z,21.57
2022-08-14T08:03:49.531Z,21.57
2022-08-14T08:04:29.674Z,21.58
2022-08-14T08:05:09.999Z,21.57
2022-08-14T08:05:46.364Z,21.57
2022-08-14T08:06:19.613Z,21.57
2022-08-14T08:06:55.295Z,21.57
2022-08-14T08:07:31.657Z,21.59
2022-08-14T08:08:08.269Z,21.59
2022-08-14T08:09:03.487Z,21.58
2022-08-14T08:09:41.714Z,21.58
2022-08-14T08:10:57.375Z,21.58
2022-08-14T08:11:35.015Z,21.58
2022-08-14T08:12:14.267Z,21.58
2022-08-14T08:12:50.167Z,21.59
2022-08-14T08:13:24.166Z,21.60
2022-08-14T08:14:00.462Z,21.61
2022-08-14T08:14:56.152Z,21.63
2022-08-14T08:15:33.118Z,21.66
2022-08-14T08:16:08.990Z,21.68
2022-08-14T08:16:43.378Z,21.71
2022-08-14T08:17:21.146Z,21.74
2022-08-14T08:18:01.165Z,21.78
2022-08-14T08:18:36.063Z,21.80
2022-08-14T08:19:14.146Z,21.80
2022-08-14T08:19:49.397Z,21.81
2022-08-14T08:20:29.340Z,21.83
2022-08-14T08:21:02.864Z,21.84
2022-08-14T08:21:40.150Z,21.87
2022-08-14T08:22:17.140Z,21.88
2022-08-14T08:22:55.792Z,21.89
2022-08-14T08:23:40.661Z,21.91
2022-08-14T08:24:24.628Z,21.94
2022-08-14T08:24:57.947Z,21.94
2022-08-14T08:25:34.400Z,21.97
2022-08-14T08:26:13.598Z,22.01
2022-08-14T08:26:50.627Z,22.04
2022-08-14T08:27:24.096Z,22.08
2022-08-14T08:28:08.213Z,22.13
2022-08-14T08:28:43.937Z,22.17
2022-08-14T08:29:28.586Z,22.22
2022-08-14T08:30:11.626Z,22.27
2022-08-14T08:30:56.640Z,22.32
2022-08-14T08:31:33.099Z,22.36
2022-08-14T08:32:09.191Z,22.39
2022-08-14T08:32:44.162Z,22.43
2022-08-14T08:33:19.607Z,22.47